createdAt,value
2019-03-29T00:21:44.366Z,58.40
2019-03-29T00:24:18.893Z,58.10
2019-03-29T00:32:33.811Z,56.40
2019-03-29T00:41:12.411Z,53.50
2019-03-29T01:46:27.046Z,57.00
2019-03-29T01:57:33.718Z,58.30
2019-03-29T02:00:21.917Z,58.40
2019-03-29T02:02:53.725Z,59.10
2019-03-29T02:05:26.142Z,58.80
2019-03-29T02:08:01.545Z,58.40
2019-03-29T02:10:37.346Z,58.50
2019-03-29T02:13:08.827Z,57.60
2019-03-29T02:16:10.221Z,57.80
2019-03-29T02:18:28.643Z,58.10
2019-03-29T02:20:58.594Z,58.80
2019-03-29T02:23:42.614Z,59.30
2019-03-29T02:29:10.948Z,60.00
2019-03-29T02:31:56.975Z,61.60
2019-03-29T02:34:39.781Z,61.50
2019-03-29T02:46:19.583Z,58.50
2019-03-29T03:02:50.350Z,54.80
2019-03-29T03:05:19.365Z,55.00
2019-03-29T03:07:50.325Z,55.30
2019-03-29T03:10:21.760Z,55.50
2019-03-29T03:26:33.425Z,56.10
2019-03-29T03:29:04.020Z,55.80
2019-03-29T03:31:40.772Z,55.50
2019-03-29T03:34:26.864Z,55.40
2019-03-29T03:37:06.719Z,55.10
2019-03-29T03:39:35.936Z,54.10
2019-03-29T03:42:05.804Z,55.90
2019-03-29T03:44:36.538Z,55.10
2019-03-29T03:47:06.453Z,54.20
2019-03-29T03:49:37.538Z,55.40
2019-03-29T03:52:10.857Z,54.20
2019-03-29T03:54:42.204Z,54.40
2019-03-29T03:57:11.868Z,54.50
2019-03-29T03:59:59.867Z,55.80
2019-03-29T04:02:29.830Z,55.80
2019-03-29T04:05:04.397Z,55.10
2019-03-29T04:07:34.110Z,55.60
2019-03-29T04:10:09.508Z,55.80
2019-03-29T04:12:56.275Z,55.20
2019-03-29T04:15:26.745Z,55.50
2019-03-29T04:18:03.893Z,54.70
2019-03-29T04:20:34.856Z,56.60
2019-03-29T04:23:05.984Z,58.30
2019-03-29T04:25:55.497Z,57.60
2019-03-29T04:28:25.854Z,57.30
2019-03-29T04:30:57.550Z,56.00
2019-03-29T04:34:03.628Z,55.50
2019-03-29T04:36:34.435Z,55.50
2019-03-29T04:42:26.969Z,55.10
2019-03-29T04:44:59.888Z,55.70
2019-03-29T04:47:30.078Z,55.10
2019-03-29T04:50:16.436Z,56.80
2019-03-29T04:52:49.585Z,56.80
2019-03-29T04:55:22.079Z,57.70
2019-03-29T04:57:54.556Z,57.80
2019-03-29T05:00:24.280Z,57.30
2019-03-29T05:02:56.418Z,58.70
2019-03-29T05:05:29.220Z,58.40
2019-03-29T05:08:03.490Z,58.30
2019-03-29T05:10:39.896Z,57.10
2019-03-29T05:13:11.410Z,56.00
2019-03-29T05:15:40.616Z,56.40
2019-03-29T05:18:23.121Z,56.00
2019-03-29T05:20:55.893Z,56.10
2019-03-29T05:23:26.813Z,58.30
2019-03-29T05:26:03.731Z,58.30
2019-03-29T05:28:37.125Z,58.50
2019-03-29T05:31:06.045Z,59.20
2019-03-29T05:33:36.569Z,58.70
2019-03-29T05:36:05.529Z,58.80
2019-03-29T05:38:36.240Z,58.60
2019-03-29T05:41:08.170Z,58.70
2019-03-29T05:43:41.220Z,60.30
2019-03-29T05:46:12.175Z,60.30
2019-03-29T05:48:42.076Z,59.20
2019-03-29T05:51:13.736Z,61.20
2019-03-29T05:53:48.902Z,61.80
2019-03-29T05:56:20.780Z,63.80
2019-03-29T05:58:52.251Z,62.90
2019-03-29T06:01:21.175Z,61.90
2019-03-29T06:03:53.185Z,60.60
2019-03-29T06:06:25.705Z,60.40
2019-03-29T06:09:09.545Z,60.70
2019-03-29T06:15:14.275Z,59.60
2019-03-29T06:17:48.923Z,62.10
2019-03-29T06:20:19.841Z,62.80
2019-03-29T06:22:50.516Z,62.50
2019-03-29T06:25:19.770Z,61.60
2019-03-29T06:28:08.373Z,60.90
2019-03-29T06:30:38.986Z,60.40
2019-03-29T06:33:09.583Z,60.00
2019-03-29T06:35:45.818Z,59.10
2019-03-29T06:38:18.132Z,59.10
2019-03-29T06:40:47.383Z,57.60
2019-03-29T06:43:16.387Z,57.50
2019-03-29T06:45:49.405Z,58.20
2019-03-29T06:48:20.656Z,57.70
2019-03-29T06:50:52.887Z,57.30
2019-03-29T06:53:25.227Z,57.40
2019-03-29T06:55:59.449Z,57.00
2019-03-29T06:58:28.677Z,57.60
2019-03-29T07:00:58.775Z,57.30
2019-03-29T07:03:36.177Z,57.50
2019-03-29T07:06:06.887Z,57.00
2019-03-29T07:08:38.991Z,56.70
2019-03-29T07:11:17.444Z,57.10
2019-03-29T07:13:56.187Z,56.40
2019-03-29T07:16:15.098Z,56.20
2019-03-29T07:18:46.705Z,57.00
2019-03-29T07:21:21.792Z,58.10
2019-03-29T07:23:49.645Z,58.70
2019-03-29T07:26:24.764Z,58.20
2019-03-29T07:31:52.985Z,57.30
2019-03-29T07:34:24.724Z,56.60
2019-03-29T07:37:06.597Z,56.90
2019-03-29T08:40:27.334Z,62.40
2019-03-29T08:43:44.623Z,61.20
2019-03-29T08:46:15.331Z,61.50
2019-03-29T08:49:00.623Z,61.30
2019-03-29T09:48:53.362Z,61.60
2019-03-29T09:51:22.392Z,59.80
2019-03-29T10:02:23.032Z,61.70
2019-03-29T10:04:53.467Z,60.60
2019-03-29T10:07:24.424Z,61.10
2019-03-29T10:09:53.219Z,60.40
2019-03-29T10:12:22.032Z,60.00
2019-03-29T10:14:51.898Z,59.60
2019-03-29T10:17:20.765Z,59.00
2019-03-29T10:19:51.321Z,59.80
2019-03-29T10:22:20.709Z,59.00
2019-03-29T10:24:50.604Z,59.10
2019-03-29T10:27:19.464Z,57.60
2019-03-29T10:29:48.326Z,57.70
2019-03-29T10:32:17.059Z,57.80
2019-03-29T10:34:46.277Z,57.60
2019-03-29T10:37:17.951Z,57.30
2019-03-29T10:39:46.802Z,56.90
2019-03-29T10:42:16.102Z,57.50
2019-03-29T10:44:49.559Z,56.20
2019-03-29T10:47:18.588Z,56.20
2019-03-29T10:49:51.068Z,57.30
2019-03-29T10:55:09.255Z,55.60
2019-03-29T10:57:38.087Z,55.60
2019-03-29T11:00:12.310Z,56.80
2019-03-29T11:02:41.627Z,55.40
2019-03-29T11:05:10.498Z,55.30
2019-03-29T11:07:39.431Z,56.20
2019-03-29T11:10:13.515Z,55.20
2019-03-29T11:12:46.537Z,53.30
2019-03-29T11:15:15.394Z,53.80
2019-03-29T11:17:45.170Z,54.40
2019-03-29T11:20:18.803Z,53.20
2019-03-29T11:22:48.673Z,54.60
2019-03-29T11:25:21.613Z,54.40
2019-03-29T11:27:56.303Z,54.20
2019-03-29T11:30:41.207Z,53.40
2019-03-29T11:32:58.306Z,53.40
2019-03-29T11:35:27.214Z,53.50
2019-03-29T11:37:57.024Z,51.60
2019-03-29T11:40:27.502Z,49.00
2019-03-29T11:42:58.820Z,47.30
2019-03-29T11:45:27.759Z,47.50
2019-03-29T11:48:07.310Z,46.00
2019-03-29T11:50:30.214Z,44.70
2019-03-29T12:03:00.480Z,42.00
2019-03-29T12:31:54.933Z,41.30
2019-03-29T12:35:00.682Z,42.30
2019-03-29T12:37:32.418Z,41.00
2019-03-29T12:40:23.156Z,41.40
2019-03-29T12:43:12.626Z,40.30
2019-03-29T12:48:50.162Z,41.40
2019-03-29T12:51:18.322Z,39.50
2019-03-29T12:53:49.014Z,39.00
2019-03-29T12:56:17.824Z,39.70
2019-03-29T12:58:48.340Z,41.40
2019-03-29T13:01:17.270Z,40.10
2019-03-29T13:03:52.615Z,38.50
2019-03-29T13:06:28.237Z,38.10
2019-03-29T13:08:58.439Z,39.30
2019-03-29T13:12:10.002Z,40.40
2019-03-29T13:15:12.225Z,40.90
2019-03-29T13:17:42.724Z,40.80
2019-03-29T13:20:15.223Z,40.40
2019-03-29T13:25:38.683Z,39.80
2019-03-29T13:31:27.904Z,38.00
2019-03-29T13:34:22.060Z,37.90
2019-03-29T13:39:51.430Z,35.20
2019-03-29T13:42:24.333Z,33.20
2019-03-29T13:44:54.424Z,33.60
2019-03-29T13:47:27.451Z,33.50
2019-03-29T13:49:57.651Z,35.20
2019-03-29T13:52:49.111Z,36.60
2019-03-29T14:07:57.667Z,29.90
2019-03-29T14:30:29.157Z,32.80
2019-03-29T14:32:59.444Z,31.60
2019-03-29T14:35:34.466Z,30.90
2019-03-29T14:40:50.210Z,30.80
2019-03-29T14:46:42.729Z,30.80
2019-03-29T14:49:32.718Z,29.30
2019-03-29T14:52:04.088Z,29.90
2019-03-29T16:03:37.953Z,30.10
2019-03-29T16:06:08.275Z,31.10
2019-03-29T16:11:46.346Z,30.50
2019-03-29T16:14:17.528Z,29.50
2019-03-29T16:16:59.647Z,28.90
2019-03-29T16:19:47.980Z,29.90
2019-03-29T16:22:18.354Z,32.50
2019-03-29T16:24:48.158Z,32.10
2019-03-29T16:27:17.541Z,31.10
2019-03-29T16:29:46.694Z,30.20
2019-03-29T16:32:16.742Z,30.80
2019-03-29T16:34:50.552Z,31.60
2019-03-29T16:37:21.077Z,30.70
2019-03-29T16:39:51.075Z,32.00
2019-03-29T16:42:29.577Z,32.20
2019-03-29T16:45:03.728Z,32.50
2019-03-29T16:47:33.206Z,33.30
2019-03-29T16:50:07.071Z,33.50
2019-03-29T16:52:40.349Z,34.30
2019-03-29T16:55:14.094Z,34.80
2019-03-29T16:57:42.242Z,36.20
2019-03-29T17:06:58.532Z,37.80
2019-03-29T17:09:36.095Z,38.40
2019-03-29T17:12:06.132Z,38.40
2019-03-29T17:14:36.964Z,38.70
2019-03-29T17:17:24.464Z,40.00
2019-03-29T17:26:21.012Z,39.90
2019-03-29T17:29:17.789Z,39.60
2019-03-29T17:34:41.778Z,38.60
2019-03-29T17:37:13.697Z,37.30
2019-03-29T17:39:42.673Z,37.70
2019-03-29T17:48:01.648Z,39.70
2019-03-29T17:50:32.096Z,40.10
2019-03-29T17:53:04.339Z,41.70
2019-03-29T18:01:31.822Z,40.60
2019-03-29T18:04:02.296Z,41.30
2019-03-29T18:06:32.270Z,41.20
2019-03-29T18:09:01.227Z,40.90
2019-03-29T18:14:22.745Z,40.40
